createdAt,value
2023-01-07T00:05:25.411Z,99733.96
2023-01-07T00:15:31.489Z,99741.94
2023-01-07T00:25:37.271Z,99746.63
2023-01-07T00:35:44.964Z,99757.73
2023-01-07T00:45:51.117Z,99761.34
2023-01-07T00:55:57.044Z,99779.59
2023-01-07T01:06:05.881Z,99782.22
2023-01-07T01:16:15.300Z,99784.56
2023-01-07T01:26:21.325Z,99773.88
2023-01-07T01:36:27.710Z,99766.71
2023-01-07T01:46:39.120Z,99766.82
2023-01-07T01:56:49.350Z,99771.70
2023-01-07T02:07:00.519Z,99774.15
2023-01-07T02:17:16.949Z,99772.15
2023-01-07T02:27:35.510Z,99773.89
2023-01-07T02:37:52.339Z,99776.70
2023-01-07T02:48:01.522Z,99777.31
2023-01-07T02:58:28.041Z,99777.02
2023-01-07T03:09:01.988Z,99785.09
2023-01-07T03:19:11.099Z,99796.50
2023-01-07T03:29:19.800Z,99806.04
2023-01-07T03:39:28.248Z,99807.94
2023-01-07T03:49:36.947Z,99800.26
2023-01-07T03:59:42.670Z,99793.67
2023-01-07T04:09:50.391Z,99787.37
2023-01-07T04:19:55.977Z,99801.02
2023-01-07T04:30:01.782Z,99803.05
2023-01-07T04:40:09.617Z,99799.50
2023-01-07T04:50:15.383Z,99802.12
2023-01-07T05:00:21.502Z,99814.02
2023-01-07T05:10:27.204Z,99815.51
2023-01-07T05:20:32.908Z,99816.09
2023-01-07T05:30:39.376Z,99810.52
2023-01-07T05:40:49.506Z,99802.20
2023-01-07T05:50:56.261Z,99812.80
2023-01-07T06:01:02.076Z,99815.52
2023-01-07T06:11:09.525Z,99817.95
2023-01-07T06:21:16.202Z,99824.39
2023-01-07T06:31:22.061Z,99839.04
2023-01-07T06:41:27.840Z,99849.04
2023-01-07T06:51:33.845Z,99858.36
2023-01-07T07:01:39.999Z,99861.20
2023-01-07T07:11:45.658Z,99863.77
2023-01-07T07:21:51.449Z,99858.05
2023-01-07T07:31:57.182Z,99864.82
2023-01-07T07:42:05.779Z,99871.62
2023-01-07T07:52:11.784Z,99870.88
2023-01-07T08:02:19.327Z,99869.20
2023-01-07T08:12:25.065Z,99874.97
2023-01-07T08:22:31.086Z,99882.36
2023-01-07T08:32:37.447Z,99889.30
2023-01-07T08:42:43.403Z,99895.45
2023-01-07T08:52:49.608Z,99889.52
2023-01-07T09:02:55.328Z,99879.56
2023-01-07T09:13:00.990Z,99878.07
2023-01-07T09:23:06.917Z,99878.39
2023-01-07T09:33:12.850Z,99872.17
2023-01-07T09:43:22.534Z,99867.99
2023-01-07T09:53:32.014Z,99865.39
2023-01-07T10:03:51.809Z,99862.59
2023-01-07T10:14:16.164Z,99862.24
2023-01-07T10:24:27.488Z,99871.13
2023-01-07T10:34:44.454Z,99873.06
2023-01-07T10:45:05.484Z,99853.27
2023-01-07T10:55:26.195Z,99846.02
2023-01-07T11:05:39.857Z,99829.22
2023-01-07T11:15:51.678Z,99821.83
2023-01-07T11:26:06.538Z,99818.64
2023-01-07T11:36:12.672Z,99809.48
2023-01-07T11:46:22.143Z,99791.80
2023-01-07T11:56:34.291Z,99791.38
2023-01-07T12:06:42.723Z,99793.25
2023-01-07T12:16:50.619Z,99778.60
2023-01-07T12:27:01.799Z,99760.16
2023-01-07T12:37:14.640Z,99732.44
2023-01-07T12:47:32.042Z,99723.33
2023-01-07T12:57:41.447Z,99719.48
2023-01-07T13:07:54.918Z,99717.02
2023-01-07T13:18:09.051Z,99722.63
2023-01-07T13:28:32.190Z,99715.23
2023-01-07T13:38:51.907Z,99707.86
2023-01-07T13:48:57.732Z,99709.93
2023-01-07T13:59:03.717Z,99717.98
2023-01-07T14:09:34.969Z,99725.23
2023-01-07T14:19:50.021Z,99725.83
2023-01-07T14:30:02.819Z,99730.14
2023-01-07T14:41:00.704Z,99736.84
2023-01-07T14:51:29.175Z,99739.98
2023-01-07T15:01:45.396Z,99727.55
2023-01-07T15:12:11.579Z,99718.98
2023-01-07T15:22:33.244Z,99713.41
2023-01-07T15:32:50.104Z,99711.30
2023-01-07T15:42:58.844Z,99706.25
2023-01-07T15:53:18.028Z,99702.86
2023-01-07T16:03:24.323Z,99697.59
2023-01-07T16:13:31.003Z,99697.21
2023-01-07T16:23:38.562Z,99700.79
2023-01-07T16:33:46.648Z,99694.10
2023-01-07T16:43:54.140Z,99688.46
2023-01-07T16:54:29.911Z,99683.27
2023-01-07T17:04:35.944Z,99680.46
2023-01-07T17:14:51.918Z,99684.71
2023-01-07T17:25:04.153Z,99683.55
2023-01-07T17:35:19.919Z,99679.14
2023-01-07T17:45:26.433Z,99669.52
2023-01-07T17:55:35.926Z,99664.05
2023-01-07T18:05:41.791Z,99668.78
2023-01-07T18:15:47.631Z,99664.38
2023-01-07T18:25:53.840Z,99665.17
2023-01-07T18:35:59.799Z,99673.09
2023-01-07T18:46:10.739Z,99673.70
2023-01-07T18:56:16.802Z,99665.96
2023-01-07T19:06:22.713Z,99655.99
2023-01-07T19:16:28.889Z,99652.15
2023-01-07T19:26:35.399Z,99643.52
2023-01-07T19:36:44.962Z,99638.03
2023-01-07T19:46:50.979Z,99635.98
2023-01-07T19:56:57.392Z,99620.64
2023-01-07T20:07:03.079Z,99613.45
2023-01-07T20:17:08.731Z,99604.60
2023-01-07T20:27:14.641Z,99599.09
2023-01-07T20:37:21.074Z,99602.02
2023-01-07T20:47:26.929Z,99599.95
2023-01-07T20:57:32.840Z,99590.70
2023-01-07T21:07:38.598Z,99599.95
2023-01-07T21:17:44.486Z,99600.08
2023-01-07T21:27:50.449Z,99601.27
2023-01-07T21:37:56.940Z,99588.65
2023-01-07T21:48:03.014Z,99588.87
2023-01-07T21:58:08.676Z,99575.47
2023-01-07T22:08:14.564Z,99568.77
2023-01-07T22:18:20.451Z,99558.20
2023-01-07T22:28:26.443Z,99563.39
2023-01-07T22:38:34.249Z,99558.16
2023-01-07T22:48:41.345Z,99550.12
2023-01-07T22:58:45.607Z,99535.36
2023-01-07T23:08:51.233Z,99529.07
2023-01-07T23:18:57.150Z,99516.81
2023-01-07T23:29:02.940Z,99503.23
2023-01-07T23:39:09.128Z,99485.02
2023-01-07T23:49:15.305Z,99477.21
2023-01-07T23:59:21.016Z,99466.46
